Nearby METAR Reports

 

KBVO - Bartlesville, Oklahoma, USA
Distance from station: WNW 10mi, 16km
Updated: Wed, 16-Aug-2017 10:25pm CDT
Mostly cloudy
Mostly cloudy
 Wind from S
Wind: S 8 mph , 13 km/h
Temperature: 70°F , 21°C
Dew Point: 66°F , 19°C
Humidity: 88%
Barometer: 29.91 inHg , 1012.9 hPa
Clouds: Mostly cloudy
Visibility: 10 miles , 16 km
Cloud details: Mostly cloudy 10000 ft
2017/08/17 03:25 KBVO 170325Z AUTO 18007KT 10SM BKN100 21/19 A2991 RMK AO2 RAE04 TSE0256 P0000 T02060194 TSNO
KCFV - Coffeyville, Kansas, USA
Distance from station: NNE 31mi, 49km
Updated: Wed, 16-Aug-2017 10:11pm CDT
Light rain, Mostly cloudy
Light rain, Mostly cloudy
 Wind from SSE
Wind: SSE 7 mph , 11 km/h
Temperature: 70°F , 21°C
Dew Point: 66°F , 19°C
Humidity: 88%
Barometer: 29.92 inHg , 1013.2 hPa
Summary: Light rain
Clouds: Mostly cloudy
Visibility: 10 miles , 16 km
Cloud details: Mostly cloudy 11000 ft
2017/08/17 03:11 KCFV 170311Z AUTO 16006KT 10SM -RA BKN110 21/19 A2992 RMK AO2 LTG DSNT ALQDS P0001 T02060194
 
KIDP - Independence, Kansas, USA
Distance from station: N 32mi, 52km
Updated: Wed, 16-Aug-2017 10:15pm CDT
Nearby thunderstorm, Mostly cloudy
Nearby thunderstorm, Mostly cloudy
 Wind from SSE
Wind: SSE 7 mph , 11 km/h
Temperature: 70°F , 21°C
Dew Point: 68°F , 20°C
Humidity: 94%
Barometer: 29.92 inHg , 1013.2 hPa
Summary: Nearby Thunderstorm
Clouds: Mostly cloudy
Visibility: 10 miles , 16 km
Cloud details: Partly cloudy 2000 ft
Mostly cloudy 8000 ft
2017/08/17 03:15 KIDP 170315Z AUTO 15006KT 10SM VCTS SCT020 BKN080 21/20 A2992 RMK AO2 LTG DSNT NE THRU S T02060199
KGCM - Claremore, Oklahoma, USA
Distance from station: SE 35mi, 56km
Updated: Wed, 16-Aug-2017 10:15pm CDT
Rain, Overcast
Rain, Overcast
 Wind from NW
Wind: NW 16 mph , 26 km/h, Gust: 30 mph , 48 km/h
Temperature: 72°F , 22°C
Dew Point: 64°F , 18°C
Humidity: 78%
Barometer: 29.96 inHg , 1014.6 hPa
Summary: Rain
Clouds: Overcast
Visibility: 10 miles , 16 km
Cloud details: Partly cloudy 2300 ft
Mostly cloudy 3500 ft
Overcast 9500 ft
2017/08/17 03:15 KGCM 170315Z AUTO 32014G26KT 10SM RA SCT023 BKN035 OVC095 22/18 A2996 RMK AO2 LTG LTG DSNT W THRU NE
 
KTUL - Tulsa, Oklahoma, USA
Distance from station: S 35mi, 56km
Updated: Wed, 16-Aug-2017 10:17pm CDT
Heavy thunderstorm rain, Overcast
Heavy thunderstorm rain, Overcast
 Wind from NW
Wind: NW 12 mph , 19 km/h, Gust: 20 mph , 31 km/h
Temperature: 73°F , 23°C
Dew Point: 68°F , 20°C
Humidity: 83%
Barometer: 29.91 inHg , 1012.9 hPa
Summary: Heavy Thunderstorm Rain
Clouds: Overcast
Visibility: 2 miles , 3 km
Cloud details: Partly cloudy 2700 ft
Overcast 3800 ft
2017/08/17 03:17 KTUL 170317Z 31010G17KT 2SM +TSRA SCT027 OVC038CB 23/20 A2991 RMK AO2 LTG DSNT ALQDS RAB16 TSB17 OCNL LTGICCG VC W-N TS VC W-N MOV SE P0002 T02280200
KRVS - Tulsa, Oklahoma, USA
Distance from station: S 46mi, 74km
Updated: Wed, 16-Aug-2017 10:20pm CDT
Overcast
Overcast
 Wind from NNW
Wind: NNW 8 mph , 13 km/h
Temperature: 79°F , 26°C
Dew Point: 66°F , 19°C
Humidity: 65%
Barometer: 29.92 inHg , 1013.2 hPa
Clouds: Overcast
Visibility: 10 miles , 16 km
Cloud details: Partly cloudy 2300 ft
Mostly cloudy 3200 ft
Overcast 9000 ft
2017/08/17 03:20 KRVS 170320Z 34007KT 300V010 10SM SCT023 BKN032 OVC090 26/19 A2992 RMK AO2 T02560189
 
KPPF - Parsons, Kansas, USA
Distance from station: NNE 48mi, 76km
Updated: Wed, 16-Aug-2017 10:25pm CDT
Light rain, Mostly cloudy
Light rain, Mostly cloudy
 Wind from SSE
Wind: SSE 7 mph , 11 km/h
Temperature: 70°F , 21°C
Dew Point: 68°F , 20°C
Humidity: 94%
Barometer: 29.93 inHg , 1013.5 hPa
Summary: Light rain
Clouds: Mostly cloudy
Visibility: 10 miles , 16 km
Cloud details: Few Clouds 5500 ft
Partly cloudy 9500 ft
Mostly cloudy 11000 ft
2017/08/17 03:25 KPPF 170325Z AUTO 16006KT 10SM -RA FEW055 SCT095 BKN110 21/20 A2993 RMK AO2 P0010 T02110200 TSNO $
KGMJ - Grove, Oklahoma, USA
Distance from station: E 63mi, 101km
Updated: Wed, 16-Aug-2017 10:15pm CDT
Thunderstorm rain, Overcast
Thunderstorm rain, Overcast
 Wind from NNW
Wind: NNW 14 mph , 22 km/h, Gust: 32 mph , 52 km/h
Temperature: 72°F , 22°C
Dew Point: 70°F , 21°C
Humidity: 94%
Barometer: 29.99 inHg , 1015.6 hPa
Summary: Thunderstorm Rain
Clouds: Overcast
Visibility: 4 miles , 6 km
Cloud details: Partly cloudy 1400 ft
Mostly cloudy 3700 ft
Overcast 5000 ft
2017/08/17 03:15 KGMJ 170315Z AUTO 34012G28KT 4SM TSRA SCT014 BKN037 OVC050 22/21 A2999 RMK AO2 LTG DSNT ALQS P0003
 
KPNC - Ponca City, Oklahoma, USA
Distance from station: W 69mi, 111km
Updated: Wed, 16-Aug-2017 9:53pm CDT
Clear
Clear
 Wind from SE
Wind: SE 3 mph , 6 km/h
Temperature: 72°F , 22°C
Dew Point: 66°F , 19°C
Humidity: 83%
Barometer: 29.90 inHg , 1012.5 hPa
Clouds: Clear
Visibility: 10 miles , 16 km
2017/08/17 02:53 KPNC 170253Z AUTO 14003KT 10SM CLR 22/19 A2990 RMK AO2 LTG DSNT S SLP112 6//// T02220194 $
KCNU - Chanute, Kansas, USA
Distance from station: NNE 69mi, 112km
Updated: Wed, 16-Aug-2017 9:52pm CDT
Light rain, Mostly cloudy
Light rain, Mostly cloudy
 Wind from SE
Wind: SE 10 mph , 17 km/h
Temperature: 72°F , 22°C
Dew Point: 70°F , 21°C
Humidity: 94%
Barometer: 29.88 inHg , 1011.9 hPa
Summary: Light rain
Clouds: Mostly cloudy
Visibility: 10 miles , 16 km
Cloud details: Few Clouds 4700 ft
Partly cloudy 5500 ft
Mostly cloudy 10000 ft
2017/08/17 02:52 KCNU 170252Z AUTO 14009KT 10SM -RA FEW047 SCT055 BKN100 22/21 A2988 RMK AO2 LTG DSNT NE AND SW RAE0159B45 SLP109 P0000 60029 T02170206 50007